Wetterdaten: Woche 02.04.18 - 08.04.18 (KW14)
Datum Zeit Temperatur Luftfeuchte Luftdruck Niederschlag Windrichtung Sonnenschein Solar Wind
02.04.2018 00:00 3,0 C 90 % 1014,3 hPa 0,0 l/m W-SW 0,00 h 0 W/m 4,9 km/h (1 Bft)
02.04.2018 01:00 2,0 C 90 % 1014,2 hPa 0,0 l/m W-SW 0,00 h 0 W/m 1,3 km/h (1 Bft)
02.04.2018 02:00 1,0 C 91 % 1014,2 hPa 0,0 l/m N 0,00 h 0 W/m 0,0 km/h (0 Bft)
02.04.2018 03:00 0,1 C 91 % 1013,9 hPa 0,0 l/m N 0,00 h 0 W/m 0,0 km/h (0 Bft)
02.04.2018 04:00 -0,5 C 92 % 1013,6 hPa 0,0 l/m N 0,00 h 0 W/m 0,0 km/h (0 Bft)
02.04.2018 05:00 -0,9 C 93 % 1013,3 hPa 0,0 l/m N 0,00 h 0 W/m 0,0 km/h (0 Bft)
02.04.2018 06:00 -1,3 C 93 % 1012,9 hPa 0,0 l/m N 0,00 h 5 W/m 0,0 km/h (0 Bft)
02.04.2018 07:00 -1,3 C 94 % 1012,7 hPa 0,0 l/m N 0,75 h 55 W/m 0,0 km/h (0 Bft)
02.04.2018 08:00 0,1 C 97 % 1012,5 hPa 0,0 l/m N 0,67 h 157 W/m 0,0 km/h (0 Bft)
02.04.2018 09:00 3,1 C 91 % 1012,3 hPa 0,4 l/m W-SW 1,00 h 375 W/m 4,4 km/h (1 Bft)
02.04.2018 10:00 5,7 C 78 % 1012,2 hPa 0,0 l/m S-SW 0,92 h 428 W/m 10,2 km/h (2 Bft)
02.04.2018 11:00 8,2 C 65 % 1011,7 hPa 0,0 l/m S-SW 0,92 h 490 W/m 10,0 km/h (2 Bft)
02.04.2018 12:00 10,4 C 56 % 1011,1 hPa 0,0 l/m S-SW 1,00 h 716 W/m 9,8 km/h (2 Bft)
02.04.2018 13:00 12,0 C 49 % 1010,1 hPa 0,0 l/m S-SW 1,00 h 716 W/m 12,0 km/h (2 Bft)
02.04.2018 14:00 13,6 C 40 % 1009,2 hPa 0,0 l/m S-SW 0,92 h 695 W/m 12,5 km/h (3 Bft)
02.04.2018 15:00 14,9 C 37 % 1008,4 hPa 0,0 l/m SW 1,00 h 614 W/m 12,6 km/h (3 Bft)
02.04.2018 16:00 14,9 C 35 % 1007,6 hPa 0,0 l/m S-SW 0,50 h 317 W/m 9,1 km/h (2 Bft)
02.04.2018 17:00 15,3 C 34 % 1006,9 hPa 0,0 l/m SW 0,42 h 218 W/m 7,2 km/h (2 Bft)
02.04.2018 18:00 14,0 C 41 % 1006,7 hPa 0,0 l/m N 0,00 h 50 W/m 0,4 km/h (0 Bft)
02.04.2018 19:00 12,8 C 53 % 1006,3 hPa 0,0 l/m N 0,00 h 17 W/m 0,0 km/h (0 Bft)
02.04.2018 20:00 10,7 C 66 % 1005,6 hPa 0,0 l/m N 0,00 h 0 W/m 0,0 km/h (0 Bft)
02.04.2018 21:00 9,7 C 70 % 1005,7 hPa 0,0 l/m N 0,00 h 0 W/m 0,0 km/h (0 Bft)
02.04.2018 22:00 9,2 C 74 % 1005,1 hPa 0,0 l/m N 0,00 h 0 W/m 0,0 km/h (0 Bft)
02.04.2018 23:00 8,6 C 73 % 1005,1 hPa 0,0 l/m N 0,00 h 0 W/m 1,9 km/h (1 Bft)
03.04.2018 00:00 9,0 C 68 % 1005,0 hPa 0,0 l/m SW 0,00 h 0 W/m 1,2 km/h (1 Bft)
03.04.2018 01:00 9,8 C 63 % 1005,3 hPa 0,0 l/m W 0,00 h 0 W/m 11,0 km/h (2 Bft)
03.04.2018 02:00 11,1 C 56 % 1006,3 hPa 0,0 l/m W-SW 0,00 h 0 W/m 22,7 km/h (4 Bft)
03.04.2018 03:00 11,3 C 59 % 1006,2 hPa 0,0 l/m W-SW 0,00 h 0 W/m 14,1 km/h (3 Bft)
03.04.2018 04:00 10,2 C 65 % 1005,7 hPa 0,0 l/m SW 0,00 h 0 W/m 11,2 km/h (2 Bft)
03.04.2018 05:00 9,1 C 67 % 1005,9 hPa 0,0 l/m W-SW 0,00 h 0 W/m 3,8 km/h (1 Bft)
03.04.2018 06:00 7,8 C 71 % 1005,9 hPa 0,0 l/m N 0,00 h 0 W/m 0,1 km/h (0 Bft)
03.04.2018 07:00 6,5 C 78 % 1005,9 hPa 0,0 l/m N 0,00 h 31 W/m 0,0 km/h (0 Bft)
03.04.2018 08:00 7,4 C 80 % 1006,2 hPa 0,0 l/m N 0,67 h 158 W/m 0,0 km/h (0 Bft)
03.04.2018 09:00 10,2 C 72 % 1006,1 hPa 0,0 l/m W-SW 1,00 h 336 W/m 0,5 km/h (0 Bft)
03.04.2018 10:00 13,0 C 64 % 1006,0 hPa 0,0 l/m W-SW 1,00 h 486 W/m 1,7 km/h (1 Bft)
03.04.2018 11:00 15,6 C 52 % 1005,6 hPa 0,0 l/m S-SW 0,75 h 488 W/m 11,9 km/h (2 Bft)
03.04.2018 12:00 16,1 C 49 % 1005,2 hPa 0,0 l/m S-SW 0,58 h 421 W/m 18,3 km/h (3 Bft)
03.04.2018 13:00 17,3 C 45 % 1004,5 hPa 0,0 l/m SW 1,00 h 761 W/m 23,7 km/h (4 Bft)
03.04.2018 14:00 18,0 C 43 % 1004,0 hPa 0,0 l/m SW 0,58 h 479 W/m 19,6 km/h (3 Bft)
03.04.2018 15:00 18,7 C 42 % 1003,3 hPa 0,0 l/m SW 0,83 h 445 W/m 18,2 km/h (3 Bft)
03.04.2018 16:00 18,9 C 42 % 1003,0 hPa 0,0 l/m SW 0,75 h 426 W/m 18,2 km/h (3 Bft)
03.04.2018 17:00 18,8 C 43 % 1003,2 hPa 0,0 l/m SW 0,75 h 279 W/m 18,5 km/h (3 Bft)
03.04.2018 18:00 18,1 C 44 % 1003,3 hPa 0,0 l/m W-SW 0,83 h 168 W/m 25,7 km/h (4 Bft)
03.04.2018 19:00 16,5 C 48 % 1003,4 hPa 0,0 l/m W 0,67 h 43 W/m 16,9 km/h (3 Bft)
03.04.2018 20:00 13,9 C 58 % 1003,8 hPa 0,0 l/m W 0,00 h 0 W/m 1,2 km/h (1 Bft)
03.04.2018 21:00 11,5 C 68 % 1003,8 hPa 0,0 l/m N 0,00 h 0 W/m 0,0 km/h (0 Bft)
03.04.2018 22:00 10,3 C 71 % 1003,8 hPa 0,0 l/m N 0,00 h 0 W/m 0,0 km/h (0 Bft)
03.04.2018 23:00 10,4 C 73 % 1003,4 hPa 0,0 l/m N 0,00 h 0 W/m 0,7 km/h (0 Bft)
04.04.2018 00:00 12,1 C 59 % 1003,3 hPa 0,0 l/m W-SW 0,00 h 0 W/m 3,5 km/h (1 Bft)
04.04.2018 01:00 11,7 C 56 % 1003,6 hPa 0,0 l/m SW 0,00 h 0 W/m 11,7 km/h (2 Bft)
04.04.2018 02:00 13,2 C 49 % 1003,9 hPa 0,0 l/m W-SW 0,00 h 0 W/m 15,3 km/h (3 Bft)
04.04.2018 03:00 12,1 C 58 % 1004,2 hPa 0,0 l/m NW 0,00 h 0 W/m 6,7 km/h (2 Bft)
04.04.2018 04:00 10,0 C 66 % 1004,1 hPa 0,0 l/m N 0,00 h 0 W/m 0,0 km/h (0 Bft)
04.04.2018 05:00 8,2 C 72 % 1004,2 hPa 0,0 l/m N 0,00 h 0 W/m 0,0 km/h (0 Bft)
04.04.2018 06:00 7,0 C 76 % 1004,0 hPa 0,0 l/m N 0,00 h 0 W/m 0,0 km/h (0 Bft)
04.04.2018 07:00 6,2 C 81 % 1003,9 hPa 0,0 l/m N 0,00 h 37 W/m 0,4 km/h (0 Bft)
04.04.2018 08:00 8,5 C 76 % 1003,6 hPa 0,0 l/m N 0,58 h 175 W/m 0,0 km/h (0 Bft)
04.04.2018 09:00 10,6 C 67 % 1003,0 hPa 0,0 l/m N 0,00 h 184 W/m 0,0 km/h (0 Bft)
04.04.2018 10:00 13,3 C 61 % 1002,8 hPa 0,0 l/m S-SO 1,00 h 376 W/m 3,1 km/h (1 Bft)
04.04.2018 11:00 16,1 C 51 % 1002,5 hPa 0,0 l/m S-SW 0,92 h 593 W/m 16,6 km/h (3 Bft)
04.04.2018 12:00 18,5 C 43 % 1001,6 hPa 0,0 l/m SW 1,00 h 748 W/m 24,8 km/h (4 Bft)
04.04.2018 13:00 20,0 C 37 % 1000,6 hPa 0,0 l/m SW 1,00 h 774 W/m 28,7 km/h (4 Bft)
04.04.2018 14:00 20,6 C 35 % 1000,0 hPa 0,0 l/m SW 1,00 h 674 W/m 31,8 km/h (5 Bft)
04.04.2018 15:00 20,0 C 36 % 1000,0 hPa 0,0 l/m SW 0,42 h 361 W/m 32,2 km/h (5 Bft)
04.04.2018 16:00 16,3 C 50 % 1002,0 hPa 0,0 l/m W 0,83 h 416 W/m 47,2 km/h (6 Bft)
04.04.2018 17:00 12,7 C 59 % 1004,7 hPa 0,0 l/m W-NW 0,00 h 133 W/m 39,2 km/h (6 Bft)
04.04.2018 18:00 9,8 C 73 % 1005,8 hPa 0,0 l/m W 0,00 h 27 W/m 24,7 km/h (4 Bft)
04.04.2018 19:00 8,4 C 84 % 1005,8 hPa 0,2 l/m SW 0,00 h 15 W/m 24,9 km/h (4 Bft)
04.04.2018 20:00 7,3 C 88 % 1005,9 hPa 0,0 l/m SW 0,00 h 0 W/m 17,7 km/h (3 Bft)
04.04.2018 21:00 6,6 C 91 % 1005,8 hPa 0,0 l/m SW 0,00 h 0 W/m 15,4 km/h (3 Bft)
04.04.2018 22:00 6,8 C 89 % 1006,0 hPa 0,0 l/m SW 0,00 h 0 W/m 12,5 km/h (3 Bft)
04.04.2018 23:00 6,5 C 88 % 1006,4 hPa 0,0 l/m W-SW 0,00 h 0 W/m 10,6 km/h (2 Bft)
05.04.2018 00:00 6,7 C 88 % 1007,2 hPa 0,0 l/m SW 0,00 h 0 W/m 14,5 km/h (3 Bft)
05.04.2018 01:00 7,0 C 87 % 1007,4 hPa 0,0 l/m W-SW 0,00 h 0 W/m 19,7 km/h (3 Bft)
05.04.2018 02:00 7,2 C 84 % 1007,6 hPa 0,0 l/m W-SW 0,00 h 0 W/m 24,0 km/h (4 Bft)
05.04.2018 03:00 6,9 C 85 % 1007,5 hPa 0,0 l/m W-SW 0,00 h 0 W/m 17,4 km/h (3 Bft)
05.04.2018 04:00 6,6 C 84 % 1007,7 hPa 0,0 l/m SW 0,00 h 0 W/m 13,0 km/h (3 Bft)
05.04.2018 05:00 5,8 C 89 % 1008,2 hPa 0,0 l/m W-SW 0,00 h 0 W/m 13,0 km/h (3 Bft)
05.04.2018 06:00 6,3 C 88 % 1008,7 hPa 0,0 l/m SW 0,00 h 6 W/m 16,8 km/h (3 Bft)
05.04.2018 07:00 6,3 C 88 % 1009,6 hPa 0,0 l/m SW 0,17 h 46 W/m 13,6 km/h (3 Bft)
05.04.2018 08:00 7,2 C 89 % 1010,1 hPa 0,0 l/m SW 0,67 h 178 W/m 11,9 km/h (2 Bft)
05.04.2018 09:00 9,2 C 81 % 1010,5 hPa 0,0 l/m SW 0,50 h 340 W/m 26,6 km/h (4 Bft)
05.04.2018 10:00 9,5 C 78 % 1011,2 hPa 0,0 l/m W-SW 0,42 h 417 W/m 26,3 km/h (4 Bft)
05.04.2018 11:00 10,3 C 74 % 1011,8 hPa 0,0 l/m W-SW 0,58 h 602 W/m 33,4 km/h (5 Bft)
05.04.2018 12:00 11,4 C 69 % 1012,0 hPa 0,0 l/m W-SW 0,83 h 710 W/m 35,1 km/h (5 Bft)
05.04.2018 13:00 12,6 C 63 % 1012,0 hPa 0,0 l/m W-SW 0,75 h 771 W/m 34,3 km/h (5 Bft)
05.04.2018 14:00 12,5 C 63 % 1012,1 hPa 0,0 l/m W 0,42 h 454 W/m 31,9 km/h (5 Bft)
05.04.2018 15:00 12,5 C 66 % 1012,5 hPa 0,0 l/m W-SW 0,42 h 448 W/m 31,8 km/h (5 Bft)
05.04.2018 16:00 8,8 C 84 % 1014,3 hPa 1,0 l/m W-NW 0,00 h 137 W/m 21,2 km/h (4 Bft)
05.04.2018 17:00 9,5 C 85 % 1015,1 hPa 0,0 l/m W-NW 0,42 h 256 W/m 17,6 km/h (3 Bft)
05.04.2018 18:00 8,0 C 83 % 1016,4 hPa 0,4 l/m W-NW 0,08 h 70 W/m 24,5 km/h (4 Bft)
05.04.2018 19:00 7,6 C 80 % 1017,5 hPa 0,0 l/m N-NW 0,00 h 21 W/m 16,5 km/h (3 Bft)
05.04.2018 20:00 6,6 C 76 % 1018,6 hPa 0,0 l/m N-NW 0,00 h 0 W/m 11,0 km/h (2 Bft)
05.04.2018 21:00 5,7 C 77 % 1019,8 hPa 0,0 l/m N-NW 0,00 h 0 W/m 5,2 km/h (1 Bft)
05.04.2018 22:00 5,6 C 75 % 1020,1 hPa 0,0 l/m N-NW 0,00 h 0 W/m 1,3 km/h (1 Bft)
05.04.2018 23:00 4,3 C 81 % 1020,3 hPa 0,0 l/m N 0,00 h 0 W/m 0,0 km/h (0 Bft)
06.04.2018 00:00 3,6 C 84 % 1020,6 hPa 0,0 l/m N 0,00 h 0 W/m 0,0 km/h (0 Bft)
06.04.2018 01:00 3,2 C 86 % 1020,7 hPa 0,0 l/m N 0,00 h 0 W/m 0,0 km/h (0 Bft)
06.04.2018 02:00 2,3 C 86 % 1020,6 hPa 0,0 l/m N-NW 0,00 h 0 W/m 0,9 km/h (0 Bft)
06.04.2018 03:00 1,4 C 88 % 1020,4 hPa 0,0 l/m N 0,00 h 0 W/m 0,0 km/h (0 Bft)
06.04.2018 04:00 0,7 C 89 % 1020,4 hPa 0,0 l/m N 0,00 h 0 W/m 0,0 km/h (0 Bft)
06.04.2018 05:00 0,5 C 90 % 1020,4 hPa 0,0 l/m N 0,00 h 0 W/m 0,0 km/h (0 Bft)
06.04.2018 06:00 0,3 C 92 % 1020,2 hPa 0,0 l/m N 0,00 h 8 W/m 1,2 km/h (1 Bft)
06.04.2018 07:00 1,0 C 92 % 1020,1 hPa 0,0 l/m N-NW 0,67 h 64 W/m 2,1 km/h (1 Bft)
06.04.2018 08:00 2,8 C 89 % 1020,2 hPa 0,0 l/m NO 0,75 h 176 W/m 5,9 km/h (2 Bft)
06.04.2018 09:00 5,2 C 82 % 1020,1 hPa 0,0 l/m NO 0,92 h 380 W/m 11,1 km/h (2 Bft)
06.04.2018 10:00 7,2 C 74 % 1019,8 hPa 0,0 l/m O-NO 1,00 h 477 W/m 16,0 km/h (3 Bft)
06.04.2018 11:00 9,3 C 68 % 1019,5 hPa 0,0 l/m O-SO 0,92 h 653 W/m 19,0 km/h (3 Bft)
06.04.2018 12:00 11,2 C 63 % 1018,8 hPa 0,0 l/m O-NO 1,00 h 749 W/m 18,5 km/h (3 Bft)
06.04.2018 13:00 13,0 C 57 % 1018,0 hPa 0,0 l/m O-SO 1,00 h 778 W/m 19,4 km/h (3 Bft)
06.04.2018 14:00 14,6 C 50 % 1017,2 hPa 0,0 l/m O-SO 1,00 h 744 W/m 18,2 km/h (3 Bft)
06.04.2018 15:00 15,4 C 47 % 1016,5 hPa 0,0 l/m O-SO 1,00 h 655 W/m 17,8 km/h (3 Bft)
06.04.2018 16:00 15,7 C 47 % 1016,0 hPa 0,0 l/m O-NO 1,00 h 522 W/m 16,8 km/h (3 Bft)
06.04.2018 17:00 15,7 C 44 % 1015,8 hPa 0,0 l/m O 1,00 h 360 W/m 17,7 km/h (3 Bft)
06.04.2018 18:00 15,0 C 47 % 1015,5 hPa 0,0 l/m O 0,83 h 167 W/m 15,7 km/h (3 Bft)
06.04.2018 19:00 13,2 C 55 % 1015,4 hPa 0,0 l/m O-NO 0,08 h 27 W/m 12,1 km/h (2 Bft)
06.04.2018 20:00 11,0 C 64 % 1015,6 hPa 0,0 l/m O-NO 0,00 h 0 W/m 6,6 km/h (2 Bft)
06.04.2018 21:00 9,3 C 70 % 1015,5 hPa 0,0 l/m N 0,00 h 0 W/m 4,8 km/h (1 Bft)
06.04.2018 22:00 8,1 C 73 % 1015,0 hPa 0,0 l/m O-NO 0,00 h 0 W/m 4,4 km/h (1 Bft)
06.04.2018 23:00 7,3 C 75 % 1014,6 hPa 0,0 l/m N 0,00 h 0 W/m 2,1 km/h (1 Bft)
07.04.2018 00:00 6,1 C 78 % 1014,3 hPa 0,0 l/m NO 0,00 h 0 W/m 2,5 km/h (1 Bft)
07.04.2018 01:00 5,1 C 81 % 1013,9 hPa 0,0 l/m NO 0,00 h 0 W/m 2,8 km/h (1 Bft)
07.04.2018 02:00 4,4 C 84 % 1013,6 hPa 0,0 l/m NO 0,00 h 0 W/m 5,1 km/h (1 Bft)
07.04.2018 03:00 3,8 C 86 % 1013,4 hPa 0,0 l/m N-NO 0,00 h 0 W/m 3,3 km/h (1 Bft)
07.04.2018 04:00 3,1 C 87 % 1013,4 hPa 0,0 l/m N-NO 0,00 h 0 W/m 4,0 km/h (1 Bft)
07.04.2018 05:00 2,6 C 88 % 1013,4 hPa 0,0 l/m N-NO 0,00 h 0 W/m 4,1 km/h (1 Bft)
07.04.2018 06:00 2,1 C 89 % 1013,5 hPa 0,0 l/m N-NO 0,00 h 7 W/m 3,3 km/h (1 Bft)
07.04.2018 07:00 2,1 C 91 % 1013,7 hPa 0,0 l/m N-NO 0,50 h 62 W/m 1,6 km/h (1 Bft)
07.04.2018 08:00 3,8 C 89 % 1014,0 hPa 0,0 l/m N 0,67 h 179 W/m 1,1 km/h (0 Bft)
07.04.2018 09:00 6,3 C 82 % 1013,9 hPa 0,0 l/m N-NO 0,92 h 378 W/m 3,1 km/h (1 Bft)
07.04.2018 10:00 9,5 C 73 % 1013,6 hPa 0,0 l/m N 1,00 h 577 W/m 0,3 km/h (0 Bft)
07.04.2018 11:00 13,0 C 63 % 1013,3 hPa 0,0 l/m N 0,92 h 697 W/m 2,7 km/h (1 Bft)
07.04.2018 12:00 16,0 C 56 % 1012,8 hPa 0,0 l/m O-NO 1,00 h 767 W/m 5,5 km/h (1 Bft)
07.04.2018 13:00 18,1 C 48 % 1012,3 hPa 0,0 l/m NO 1,00 h 789 W/m 5,3 km/h (1 Bft)
07.04.2018 14:00 20,3 C 36 % 1011,5 hPa 0,0 l/m O 1,00 h 754 W/m 7,6 km/h (2 Bft)
07.04.2018 15:00 21,6 C 33 % 1010,7 hPa 0,0 l/m O-NO 1,00 h 659 W/m 7,0 km/h (2 Bft)
07.04.2018 16:00 22,4 C 30 % 1010,1 hPa 0,0 l/m O-NO 1,00 h 527 W/m 3,9 km/h (1 Bft)
07.04.2018 17:00 22,5 C 30 % 1009,7 hPa 0,0 l/m O-NO 1,00 h 362 W/m 7,6 km/h (2 Bft)
07.04.2018 18:00 21,1 C 40 % 1009,4 hPa 0,0 l/m O-NO 0,83 h 163 W/m 12,0 km/h (2 Bft)
07.04.2018 19:00 18,6 C 48 % 1009,2 hPa 0,0 l/m NO 0,08 h 30 W/m 4,0 km/h (1 Bft)
07.04.2018 20:00 15,3 C 59 % 1009,3 hPa 0,0 l/m N 0,00 h 0 W/m 0,5 km/h (0 Bft)
07.04.2018 21:00 13,3 C 65 % 1009,8 hPa 0,0 l/m N 0,00 h 0 W/m 0,1 km/h (0 Bft)
07.04.2018 22:00 12,0 C 70 % 1009,8 hPa 0,0 l/m NO 0,00 h 0 W/m 0,5 km/h (0 Bft)
07.04.2018 23:00 11,0 C 71 % 1009,6 hPa 0,0 l/m NO 0,00 h 0 W/m 2,5 km/h (1 Bft)
08.04.2018 00:00 10,0 C 72 % 1009,2 hPa 0,0 l/m N 0,00 h 0 W/m 0,1 km/h (0 Bft)
08.04.2018 01:00 8,9 C 76 % 1009,0 hPa 0,0 l/m N 0,00 h 0 W/m 0,1 km/h (0 Bft)
08.04.2018 02:00 8,0 C 79 % 1008,6 hPa 0,0 l/m N 0,00 h 0 W/m 0,0 km/h (0 Bft)
08.04.2018 03:00 7,1 C 81 % 1008,3 hPa 0,0 l/m N 0,00 h 0 W/m 0,1 km/h (0 Bft)
08.04.2018 04:00 6,4 C 84 % 1008,1 hPa 0,0 l/m N 0,00 h 0 W/m 0,3 km/h (0 Bft)
08.04.2018 05:00 5,8 C 85 % 1007,9 hPa 0,0 l/m N 0,00 h 0 W/m 0,0 km/h (0 Bft)
08.04.2018 06:00 5,1 C 87 % 1007,6 hPa 0,0 l/m N 0,00 h 8 W/m 0,7 km/h (0 Bft)
08.04.2018 07:00 5,3 C 89 % 1007,5 hPa 0,0 l/m N 0,33 h 62 W/m 0,1 km/h (0 Bft)
08.04.2018 08:00 7,2 C 84 % 1007,7 hPa 0,0 l/m NO 0,75 h 187 W/m 5,3 km/h (1 Bft)
08.04.2018 09:00 9,8 C 77 % 1007,5 hPa 0,0 l/m NO 0,92 h 380 W/m 6,8 km/h (2 Bft)
08.04.2018 10:00 12,8 C 69 % 1007,0 hPa 0,0 l/m NO 1,00 h 561 W/m 5,2 km/h (1 Bft)
08.04.2018 11:00 15,9 C 56 % 1006,7 hPa 0,0 l/m O-NO 0,92 h 686 W/m 3,6 km/h (1 Bft)
08.04.2018 12:00 19,0 C 49 % 1006,0 hPa 0,0 l/m O-NO 1,00 h 758 W/m 6,0 km/h (2 Bft)
08.04.2018 13:00 21,0 C 44 % 1005,3 hPa 0,0 l/m S-SO 1,00 h 770 W/m 6,1 km/h (2 Bft)
08.04.2018 14:00 22,5 C 40 % 1004,6 hPa 0,0 l/m O-NO 1,00 h 727 W/m 10,1 km/h (2 Bft)
08.04.2018 15:00 23,2 C 40 % 1003,8 hPa 0,0 l/m O-NO 1,00 h 619 W/m 13,2 km/h (3 Bft)
08.04.2018 16:00 23,1 C 39 % 1003,3 hPa 0,0 l/m O-NO 1,00 h 481 W/m 15,7 km/h (3 Bft)
08.04.2018 17:00 22,6 C 38 % 1003,1 hPa 0,0 l/m O-NO 0,92 h 316 W/m 14,6 km/h (3 Bft)
08.04.2018 18:00 21,7 C 42 % 1003,3 hPa 0,0 l/m O-SO 0,58 h 153 W/m 14,2 km/h (3 Bft)
08.04.2018 19:00 19,2 C 53 % 1003,6 hPa 0,0 l/m N 0,17 h 34 W/m 2,3 km/h (1 Bft)
08.04.2018 20:00 16,5 C 61 % 1004,0 hPa 0,0 l/m N 0,00 h 0 W/m 0,9 km/h (0 Bft)
08.04.2018 21:00 13,7 C 67 % 1004,3 hPa 0,0 l/m N 0,00 h 0 W/m 0,0 km/h (0 Bft)
08.04.2018 22:00 12,2 C 66 % 1004,3 hPa 0,0 l/m N 0,00 h 0 W/m 0,3 km/h (0 Bft)
08.04.2018 23:00 11,4 C 67 % 1004,3 hPa 0,0 l/m N 0,00 h 0 W/m 0,0 km/h (0 Bft)
Min-Datum _ 02.04.18 07.04.18 04.04.18 - - - - 02.04.18
_ Min-Zeit 07:05 16:35 15:15 - - - - 00:35
Minimum _ -1,5 C 27 % 999,8 hPa - - - - 0,0 km/h (0 Bft)
Max-Datum _ 08.04.18 02.04.18 06.04.18 05.04.18 - 02.04.18 05.04.18 04.04.18
_ Max-Zeit 15:20 08:20 00:50 16:10 - 07:10 12:45 16:25
Maximum _ 23,4 C 97 % 1020,9 hPa 1,0 l/m - 0,08 h 1072 W/m 66,0 km/h
W-NW (8 Bft)
Durchschnitt _ 10,4 C 68 % 1009,6 hPa #2,0 l/m SW #63:10 h 373 W/m 9,3 km/h (2 Bft)